Mosca, CO (81146)

12:16 AM MDT on July 03, 2015 (GMT -0600)
Hooper | | Change Station
CLOSE
Current Station
Personal Weather Station
Location: Hooper, CO
Elevation: 7559 ft
Nearby Weather Stations

Elev 7559 ft 37.73 °N, 105.87 °W | Updated 1 minute ago

Clear
Clear
53.2 °F
Feels Like 53.2 °F
N
0.0
Wind Variable Wind from SSE

Today
High -- | Low -- °F
--% Chance of Precip.
Yesterday
High -- | Low -- °F
Precip. -- in
5:45 AM 8:28 PM
Full, 98% visible
Pressure 30.08 in
Visibility 10.0 miles
Clouds Clear
Dew Point 51 °F
Humidity 91%
Rainfall 0.15 in
Snow Depth Not available.
UV 0 out of 12
Pollen 6.60 out of 12
Air Quality Not available.
Flu Activity Not available.
METAR KALS 030552Z AUTO 19003KT 10SM CLR 13/11 A3034 RMK AO2 SLP184 60002 T01280111 10194 20128 50002

More Conditions Fewer Conditions

Pressure 30.08 in
Visibility 10.0 miles
Clouds Clear
Dew Point 51 °F
Humidity 91%
Rainfall 0.15 in
Snow Depth Not available.
UV 0 out of 12
Pollen 6.60 out of 12
Air Quality Not available.
Flu Activity Not available.
METAR KALS 030552Z AUTO 19003KT 10SM CLR 13/11 A3034 RMK AO2 SLP184 60002 T01280111 10194 20128 50002

More Conditions Fewer Conditions

10-Day Weather Forecast

×

Almanac

Astronomy

Jul. 03, 2015 Rise Set
Actual Time
Civil Twilight
Nautical Twilight
Astronomical Twilight
Moon
Length of Visible Light
Length of Day
Tomorrow will be .
, % of the Moon is Illuminated

Today's Extremes

State Highs State Lows

Community

WunderPhotos

Upload Photos

1,834,634 photos uploaded!

WunderBlogs® & News

Nearby

Air Quality

  Air Quality AQ Index Pollutant
Not available.

Snow Depth

Station Depth Elevation

Earthquake Activity

City Distance Mag. Time & Date
Minimum magnitude displayed is 2.5.

Coastal Water Temperatures

Place Temperature

Stations

Nearby Weather Stations

Station Location Temp. Windchill Dew Point Humidity Wind Precip. Elev Updated Type